createdAt,value
2023-04-27T00:00:56.770Z,59.20
2023-04-27T00:03:51.667Z,58.70
2023-04-27T00:06:27.430Z,59.00
2023-04-27T00:08:56.549Z,58.70
2023-04-27T00:11:26.583Z,58.80
2023-04-27T00:13:57.993Z,59.10
2023-04-27T00:16:27.151Z,59.00
2023-04-27T00:19:10.930Z,58.60
2023-04-27T00:22:11.450Z,59.30
2023-04-27T00:24:42.843Z,58.60
2023-04-27T00:27:13.854Z,58.50
2023-04-27T00:30:08.237Z,58.40
2023-04-27T00:32:39.120Z,59.00
2023-04-27T00:35:10.513Z,58.60
2023-04-27T00:37:51.824Z,58.60
2023-04-27T00:40:34.876Z,58.50
2023-04-27T00:43:05.079Z,58.70
2023-04-27T00:48:46.218Z,59.00
2023-04-27T00:51:17.948Z,58.70
2023-04-27T00:53:48.209Z,59.10
2023-04-27T00:56:18.800Z,59.20
2023-04-27T01:03:33.266Z,59.00
2023-04-27T01:06:05.683Z,59.50
2023-04-27T01:08:38.781Z,59.40
2023-04-27T01:11:11.461Z,59.60
2023-04-27T01:13:43.025Z,59.80
2023-04-27T01:16:14.354Z,59.80
2023-04-27T01:18:44.432Z,59.90
2023-04-27T01:21:13.873Z,59.90
2023-04-27T01:23:44.774Z,59.90
2023-04-27T01:26:18.003Z,59.90
2023-04-27T01:28:49.068Z,60.10
2023-04-27T01:31:54.605Z,60.20
2023-04-27T01:34:32.327Z,60.60
2023-04-27T01:37:01.339Z,60.50
2023-04-27T01:39:31.206Z,60.00
2023-04-27T01:42:00.296Z,60.40
2023-04-27T01:44:31.599Z,60.50
2023-04-27T01:47:07.573Z,61.10
2023-04-27T01:49:53.994Z,61.30
2023-04-27T01:52:26.998Z,61.10
2023-04-27T01:54:58.954Z,60.50
2023-04-27T01:57:54.224Z,60.60
2023-04-27T02:00:24.151Z,60.50
2023-04-27T02:07:05.701Z,60.70
2023-04-27T02:10:51.328Z,60.10
2023-04-27T02:13:27.396Z,60.70
2023-04-27T02:16:06.820Z,60.90
2023-04-27T02:18:49.649Z,61.70
2023-04-27T02:22:05.073Z,62.00
2023-04-27T02:24:40.811Z,61.30
2023-04-27T02:27:15.665Z,61.80
2023-04-27T02:30:09.359Z,62.70
2023-04-27T02:32:45.526Z,62.80
2023-04-27T02:41:24.537Z,63.30
2023-04-27T02:43:55.022Z,63.00
2023-04-27T02:46:27.884Z,63.60
2023-04-27T02:49:23.892Z,63.60
2023-04-27T02:51:52.617Z,63.20
2023-04-27T02:54:23.063Z,63.30
2023-04-27T02:56:51.647Z,63.70
2023-04-27T02:59:45.764Z,63.70
2023-04-27T03:05:05.534Z,63.40
2023-04-27T03:07:35.288Z,63.30
2023-04-27T03:10:06.830Z,64.00
2023-04-27T03:12:45.864Z,64.50
2023-04-27T03:15:59.696Z,64.20
2023-04-27T03:18:33.068Z,64.70
2023-04-27T03:21:39.821Z,64.60
2023-04-27T03:24:15.069Z,65.50
2023-04-27T03:26:52.618Z,64.60
2023-04-27T03:29:30.962Z,65.40
2023-04-27T03:35:03.763Z,65.50
2023-04-27T03:37:49.187Z,65.50
2023-04-27T03:40:20.217Z,64.70
2023-04-27T03:43:21.029Z,65.70
2023-04-27T03:45:50.765Z,64.80
2023-04-27T03:48:22.920Z,64.60
2023-04-27T03:51:19.637Z,64.60
2023-04-27T03:53:51.429Z,64.00
2023-04-27T03:56:23.201Z,64.40
2023-04-27T03:58:53.573Z,64.40
2023-04-27T04:01:25.682Z,64.60
2023-04-27T04:03:57.975Z,64.70
2023-04-27T04:06:28.756Z,65.40
2023-04-27T04:08:58.896Z,64.60
2023-04-27T04:18:36.971Z,66.20
2023-04-27T04:25:03.695Z,65.30
2023-04-27T04:27:55.351Z,65.60
2023-04-27T04:30:28.320Z,65.80
2023-04-27T04:33:10.551Z,65.40
2023-04-27T04:35:52.869Z,66.00
2023-04-27T04:38:28.791Z,66.10
2023-04-27T04:41:02.629Z,66.50
2023-04-27T04:43:38.731Z,66.30
2023-04-27T04:46:39.070Z,66.30
2023-04-27T04:49:12.629Z,65.80
2023-04-27T04:51:48.831Z,66.20
2023-04-27T04:54:24.917Z,64.90
2023-04-27T04:59:51.769Z,65.20
2023-04-27T05:02:24.917Z,65.70
2023-04-27T05:04:59.560Z,65.90
2023-04-27T05:07:27.478Z,65.40
2023-04-27T05:09:58.096Z,64.70
2023-04-27T05:12:32.633Z,66.40
2023-04-27T05:15:04.262Z,65.10
2023-04-27T05:17:37.097Z,65.10
2023-04-27T05:20:11.360Z,64.50
2023-04-27T05:22:46.246Z,64.20
2023-04-27T05:25:23.267Z,65.00
2023-04-27T05:30:45.813Z,63.20
2023-04-27T05:41:29.555Z,62.20
2023-04-27T05:43:56.998Z,62.10
2023-04-27T05:46:25.411Z,61.40
2023-04-27T05:48:53.140Z,61.20
2023-04-27T05:52:38.597Z,58.30
2023-04-27T06:31:40.070Z,56.80
2023-04-27T06:53:01.307Z,52.00
2023-04-27T06:56:22.769Z,51.00
2023-04-27T06:58:55.864Z,51.30
2023-04-27T07:01:27.188Z,49.70
2023-04-27T07:04:03.277Z,50.50
2023-04-27T07:19:03.080Z,49.60
2023-04-27T07:25:25.430Z,49.00
2023-04-27T07:27:53.233Z,49.20
2023-04-27T07:30:21.129Z,49.00
2023-04-27T07:32:54.617Z,47.90
2023-04-27T07:43:50.769Z,47.50
2023-04-27T07:46:18.885Z,47.20
2023-04-27T07:48:47.458Z,45.30
2023-04-27T07:51:19.332Z,45.10
2023-04-27T07:53:47.829Z,44.70
2023-04-27T07:56:15.534Z,43.60
2023-04-27T07:58:43.527Z,42.90
2023-04-27T08:01:11.103Z,42.60
2023-04-27T08:03:38.651Z,43.40
2023-04-27T08:06:06.825Z,42.20
2023-04-27T08:08:34.952Z,41.00
2023-04-27T08:11:02.630Z,40.60
2023-04-27T08:13:30.279Z,39.80
2023-04-27T08:15:59.268Z,39.20
2023-04-27T08:18:27.227Z,38.60
2023-04-27T08:20:55.238Z,39.10
2023-04-27T08:23:22.667Z,38.90
2023-04-27T08:25:50.118Z,39.80
2023-04-27T08:28:17.604Z,39.90
2023-04-27T08:30:45.698Z,37.30
2023-04-27T08:33:13.341Z,38.90
2023-04-27T08:35:41.212Z,38.80
2023-04-27T08:38:09.777Z,37.90
2023-04-27T08:40:42.852Z,37.40
2023-04-27T08:43:10.941Z,37.90
2023-04-27T08:45:47.899Z,37.10
2023-04-27T08:48:15.830Z,37.80
2023-04-27T08:50:44.938Z,35.90
2023-04-27T08:53:22.434Z,35.90
2023-04-27T08:55:50.693Z,35.20
2023-04-27T08:58:18.468Z,35.20
2023-04-27T09:00:46.750Z,34.30
2023-04-27T09:03:24.406Z,34.60
2023-04-27T09:06:03.715Z,35.30
2023-04-27T09:08:49.512Z,35.40
2023-04-27T09:11:32.882Z,35.00
2023-04-27T09:14:03.411Z,35.70
2023-04-27T09:16:31.489Z,34.80
2023-04-27T09:18:59.202Z,33.90
2023-04-27T09:21:29.545Z,33.70
2023-04-27T09:23:57.336Z,33.10
2023-04-27T09:26:27.531Z,32.60
2023-04-27T09:28:59.310Z,32.50
2023-04-27T09:31:33.895Z,32.70
2023-04-27T09:34:04.524Z,32.90
2023-04-27T09:36:35.313Z,31.40
2023-04-27T09:39:07.178Z,32.10
2023-04-27T09:41:36.810Z,31.50
2023-04-27T09:44:05.417Z,31.80
2023-04-27T09:46:34.216Z,32.40
2023-04-27T09:49:04.955Z,34.00
2023-04-27T09:51:34.036Z,34.00
2023-04-27T09:54:04.440Z,33.40
2023-04-27T09:56:53.217Z,34.50
2023-04-27T09:59:31.857Z,35.40
2023-04-27T10:02:09.946Z,36.50
2023-04-27T10:04:47.552Z,38.20
2023-04-27T10:07:15.743Z,35.00
2023-04-27T10:09:49.090Z,33.50
2023-04-27T10:12:28.734Z,35.10
2023-04-27T10:15:01.541Z,36.20
2023-04-27T10:17:32.128Z,36.00
2023-04-27T10:20:03.958Z,36.80
2023-04-27T10:22:41.668Z,37.30
2023-04-27T10:25:28.458Z,37.30
2023-04-27T10:28:01.647Z,39.00
2023-04-27T10:30:35.550Z,36.70
2023-04-27T10:33:09.324Z,36.70
2023-04-27T10:35:54.468Z,36.70
2023-04-27T10:38:28.399Z,36.70
2023-04-27T10:40:58.995Z,38.20
2023-04-27T10:43:29.373Z,39.70
2023-04-27T10:46:16.462Z,40.00
2023-04-27T10:48:45.715Z,39.50
2023-04-27T10:51:17.725Z,39.30
2023-04-27T10:53:47.134Z,39.80
2023-04-27T10:56:17.453Z,37.90
2023-04-27T10:58:49.403Z,39.50
2023-04-27T11:01:25.735Z,37.60
2023-04-27T11:04:01.754Z,37.60
2023-04-27T11:06:35.423Z,37.40
2023-04-27T11:09:06.970Z,36.70
2023-04-27T11:11:36.027Z,36.20
2023-04-27T11:14:04.270Z,38.70
2023-04-27T11:16:34.700Z,36.90
2023-04-27T11:19:06.806Z,36.70
2023-04-27T11:21:35.541Z,37.70
2023-04-27T11:24:06.208Z,40.30
2023-04-27T11:26:35.477Z,38.00
2023-04-27T11:29:16.738Z,39.80
2023-04-27T11:31:50.490Z,37.90
2023-04-27T11:34:22.751Z,39.00
2023-04-27T11:39:41.815Z,39.20
2023-04-27T11:42:23.124Z,39.20
2023-04-27T11:45:12.025Z,40.20
2023-04-27T11:47:42.425Z,38.20
2023-04-27T11:50:10.799Z,38.80
2023-04-27T11:52:40.729Z,39.40
2023-04-27T11:55:16.442Z,37.30
2023-04-27T11:57:44.228Z,36.00
2023-04-27T12:00:14.282Z,36.90
2023-04-27T12:02:44.122Z,36.30
2023-04-27T12:05:13.399Z,36.70
2023-04-27T12:07:42.168Z,37.70
2023-04-27T12:10:09.912Z,38.00
2023-04-27T12:12:37.480Z,36.80
2023-04-27T12:15:05.302Z,36.90
2023-04-27T12:17:34.323Z,36.10
2023-04-27T12:20:01.938Z,36.80
2023-04-27T12:22:29.447Z,37.30
2023-04-27T12:24:57.638Z,37.10
2023-04-27T12:27:26.538Z,37.00
2023-04-27T12:29:54.351Z,36.80
2023-04-27T12:32:22.279Z,37.00
2023-04-27T12:34:49.583Z,37.80
2023-04-27T12:37:17.099Z,36.80
2023-04-27T12:39:44.793Z,37.20
2023-04-27T12:42:12.302Z,38.40
2023-04-27T12:44:39.872Z,38.30
2023-04-27T12:47:08.240Z,40.10
2023-04-27T12:49:36.409Z,37.70
2023-04-27T12:52:03.876Z,37.50
2023-04-27T12:54:31.380Z,38.60
2023-04-27T12:57:02.841Z,38.80
2023-04-27T12:59:30.237Z,37.80
2023-04-27T13:01:57.779Z,36.10
2023-04-27T13:04:25.312Z,36.50
2023-04-27T13:06:53.535Z,39.00
2023-04-27T13:09:21.494Z,38.60
2023-04-27T13:11:49.433Z,38.90
2023-04-27T13:14:17.325Z,39.10
2023-04-27T13:16:45.033Z,37.30
2023-04-27T13:19:12.467Z,38.20
2023-04-27T13:21:39.874Z,36.20
2023-04-27T13:24:07.541Z,37.00
2023-04-27T13:26:35.387Z,39.90
2023-04-27T13:29:04.579Z,38.10
2023-04-27T13:31:32.929Z,37.00
2023-04-27T13:34:01.253Z,37.10
2023-04-27T13:36:28.665Z,38.10
2023-04-27T13:38:57.087Z,37.50
2023-04-27T13:41:24.622Z,37.20
2023-04-27T13:43:52.118Z,35.90
2023-04-27T13:46:19.616Z,35.00
2023-04-27T13:48:47.740Z,35.40
2023-04-27T13:51:15.406Z,35.60
2023-04-27T13:53:42.803Z,35.60
2023-04-27T13:56:10.347Z,36.10
2023-04-27T13:58:37.864Z,35.60
2023-04-27T14:01:05.494Z,35.10
2023-04-27T14:03:33.967Z,35.50
2023-04-27T14:06:01.844Z,36.90
2023-04-27T14:08:29.710Z,37.80
2023-04-27T14:10:57.256Z,38.60
2023-04-27T14:13:24.700Z,40.30
2023-04-27T14:15:52.078Z,36.70
2023-04-27T14:18:19.485Z,37.40
2023-04-27T14:20:46.929Z,38.50
2023-04-27T14:23:14.389Z,39.90
2023-04-27T14:25:41.832Z,40.30
2023-04-27T14:28:10.742Z,37.70
2023-04-27T14:30:38.153Z,38.70
2023-04-27T14:33:05.986Z,38.90
2023-04-27T14:35:37.088Z,39.20
2023-04-27T14:38:07.016Z,37.40
2023-04-27T14:40:35.474Z,37.80
2023-04-27T14:43:03.628Z,38.70
2023-04-27T14:45:39.728Z,38.80
2023-04-27T14:48:15.612Z,38.70
2023-04-27T14:50:43.476Z,39.30
2023-04-27T14:53:10.994Z,39.80
2023-04-27T14:55:47.086Z,38.50
2023-04-27T14:58:15.514Z,39.30
2023-04-27T15:00:43.864Z,39.50
2023-04-27T15:03:31.970Z,38.80
2023-04-27T15:06:25.941Z,39.10
2023-04-27T15:08:55.493Z,39.00
2023-04-27T15:11:23.810Z,38.80
2023-04-27T15:13:51.816Z,38.20
2023-04-27T15:17:03.766Z,38.80
2023-04-27T15:19:41.224Z,37.70
2023-04-27T15:22:11.464Z,37.70
2023-04-27T15:24:39.260Z,38.60
2023-04-27T15:27:08.437Z,38.90
2023-04-27T15:29:37.786Z,39.20
2023-04-27T15:32:05.498Z,38.70
2023-04-27T15:34:33.467Z,38.10
2023-04-27T15:50:08.128Z,40.00
2023-04-27T15:52:40.640Z,39.80
2023-04-27T15:55:14.529Z,40.50
2023-04-27T15:57:50.561Z,40.80
2023-04-27T16:00:34.372Z,39.30
2023-04-27T16:03:16.954Z,39.50
2023-04-27T16:05:45.280Z,38.70
2023-04-27T16:08:14.314Z,38.80
2023-04-27T16:10:42.204Z,37.90
2023-04-27T16:13:10.024Z,38.80
2023-04-27T16:15:37.878Z,38.40
2023-04-27T16:18:05.772Z,38.70
2023-04-27T16:20:36.304Z,40.10
2023-04-27T16:23:04.369Z,39.80
2023-04-27T16:25:32.231Z,40.00
2023-04-27T16:28:00.188Z,40.00
2023-04-27T16:30:28.936Z,39.00
2023-04-27T16:32:56.867Z,40.00
2023-04-27T16:35:24.693Z,40.90
2023-04-27T16:37:53.787Z,40.80
2023-04-27T16:40:21.788Z,39.80
2023-04-27T16:42:49.555Z,39.80
2023-04-27T16:45:18.983Z,39.90
2023-04-27T16:47:47.856Z,40.40
2023-04-27T16:50:16.729Z,40.20
2023-04-27T16:52:44.962Z,40.40
2023-04-27T16:55:12.771Z,39.80
2023-04-27T16:57:40.978Z,39.10
2023-04-27T17:00:10.180Z,39.90
2023-04-27T17:02:39.518Z,40.10
2023-04-27T17:05:09.379Z,40.40
2023-04-27T17:07:38.216Z,40.70
2023-04-27T17:10:14.666Z,40.90
2023-04-27T17:12:42.553Z,42.40
2023-04-27T17:15:12.107Z,39.40
2023-04-27T17:17:40.099Z,39.30
2023-04-27T17:20:12.975Z,39.20
2023-04-27T17:22:43.186Z,39.40
2023-04-27T17:25:11.206Z,41.00
2023-04-27T17:27:39.072Z,39.80
2023-04-27T17:30:10.260Z,42.50
2023-04-27T17:32:37.801Z,41.20
2023-04-27T17:35:06.471Z,41.60
2023-04-27T17:37:34.503Z,42.00
2023-04-27T17:40:02.001Z,41.50
2023-04-27T17:42:30.058Z,41.70
2023-04-27T17:44:58.802Z,43.00
2023-04-27T17:47:27.393Z,42.90
2023-04-27T17:49:54.918Z,42.60
2023-04-27T17:52:25.155Z,42.10
2023-04-27T17:54:57.485Z,42.50
2023-04-27T17:57:29.050Z,42.10
2023-04-27T17:59:58.347Z,42.00
2023-04-27T18:02:29.946Z,42.30
2023-04-27T18:05:02.293Z,42.00
2023-04-27T18:07:43.774Z,42.90
2023-04-27T18:10:16.433Z,42.40
2023-04-27T18:12:46.064Z,42.10
2023-04-27T18:15:16.454Z,42.90
2023-04-27T18:17:46.457Z,43.90
2023-04-27T18:20:16.991Z,43.30
2023-04-27T18:22:45.754Z,41.40
2023-04-27T18:25:15.051Z,42.80
2023-04-27T18:27:46.035Z,42.90
2023-04-27T18:30:14.517Z,42.60
2023-04-27T18:32:44.230Z,42.20
2023-04-27T18:35:17.009Z,42.10
2023-04-27T18:37:48.206Z,41.90
2023-04-27T18:40:21.287Z,42.10
2023-04-27T18:42:49.952Z,43.60
2023-04-27T18:45:17.504Z,43.50
2023-04-27T18:47:44.933Z,43.80
2023-04-27T18:50:13.290Z,44.00
2023-04-27T18:52:41.102Z,44.90
2023-04-27T18:55:09.727Z,46.30
2023-04-27T18:57:37.552Z,46.80
2023-04-27T19:00:05.853Z,47.00
2023-04-27T19:02:33.462Z,47.60
2023-04-27T19:05:11.643Z,47.80
2023-04-27T19:07:41.266Z,48.10
2023-04-27T19:10:09.466Z,49.80
2023-04-27T19:12:38.965Z,49.50
2023-04-27T19:15:07.973Z,49.80
2023-04-27T19:17:37.721Z,49.70
2023-04-27T19:20:05.851Z,49.50
2023-04-27T19:22:34.942Z,48.60
2023-04-27T19:25:03.610Z,48.50
2023-04-27T19:27:31.228Z,48.60
2023-04-27T19:29:58.972Z,48.40
2023-04-27T19:32:27.496Z,48.50
2023-04-27T19:34:56.952Z,48.60
2023-04-27T19:37:25.106Z,48.60
2023-04-27T19:39:52.753Z,48.90
2023-04-27T19:42:20.727Z,49.10
2023-04-27T19:44:48.172Z,49.30
2023-04-27T19:47:16.304Z,49.70
2023-04-27T19:49:44.110Z,49.90
2023-04-27T19:52:12.129Z,49.90
2023-04-27T19:54:40.062Z,50.30
2023-04-27T19:57:07.500Z,50.70
2023-04-27T19:59:34.986Z,50.70
2023-04-27T20:02:02.950Z,50.80
2023-04-27T20:04:30.642Z,50.90
2023-04-27T20:06:58.305Z,51.20
2023-04-27T20:09:25.857Z,51.60
2023-04-27T20:11:54.944Z,51.20
2023-04-27T20:14:22.790Z,51.40
2023-04-27T20:16:50.441Z,51.70
2023-04-27T20:19:19.369Z,51.00
2023-04-27T20:21:46.945Z,51.20
2023-04-27T20:24:14.970Z,51.10
2023-04-27T20:26:42.735Z,50.90
2023-04-27T20:29:10.556Z,50.60
2023-04-27T20:31:38.686Z,51.00
2023-04-27T20:34:09.223Z,50.60
2023-04-27T20:36:36.646Z,50.20
2023-04-27T20:39:05.655Z,50.10
2023-04-27T20:41:35.991Z,50.10
2023-04-27T20:44:03.950Z,50.00
2023-04-27T20:46:31.481Z,49.80
2023-04-27T20:48:59.869Z,49.90
2023-04-27T20:51:27.980Z,49.80
2023-04-27T20:53:56.627Z,49.70
2023-04-27T20:56:24.171Z,49.70
2023-04-27T20:58:51.886Z,49.80
2023-04-27T21:01:19.499Z,50.10
2023-04-27T21:03:48.136Z,50.10
2023-04-27T21:06:15.721Z,50.30
2023-04-27T21:08:43.231Z,50.10
2023-04-27T21:11:11.825Z,50.10
2023-04-27T21:13:39.705Z,50.20
2023-04-27T21:16:07.319Z,50.40
2023-04-27T21:18:35.140Z,50.40
2023-04-27T21:21:02.866Z,50.30
2023-04-27T21:23:30.287Z,50.40
2023-04-27T21:25:58.201Z,50.70
2023-04-27T21:28:26.727Z,50.60
2023-04-27T21:30:54.424Z,50.50
2023-04-27T21:33:22.167Z,50.20
2023-04-27T21:35:49.835Z,50.40
2023-04-27T21:38:17.283Z,50.40
2023-04-27T21:40:44.869Z,50.50
2023-04-27T21:43:12.411Z,50.70
2023-04-27T21:45:40.484Z,50.90
2023-04-27T21:48:08.030Z,51.00
2023-04-27T21:50:35.849Z,51.80
2023-04-27T21:53:03.603Z,52.20
2023-04-27T21:55:31.072Z,51.90
2023-04-27T21:57:58.478Z,51.40
2023-04-27T22:00:25.995Z,51.60
2023-04-27T22:02:53.561Z,51.10
2023-04-27T22:05:21.114Z,51.60
2023-04-27T22:07:48.648Z,51.50
2023-04-27T22:10:16.202Z,51.70
2023-04-27T22:12:43.636Z,51.90
2023-04-27T22:15:11.956Z,52.00
2023-04-27T22:17:39.739Z,52.20
2023-04-27T22:20:13.194Z,52.40
2023-04-27T22:22:41.515Z,52.20
2023-04-27T22:25:10.675Z,52.80
2023-04-27T22:27:45.016Z,51.90
2023-04-27T22:30:14.505Z,52.00
2023-04-27T22:32:42.724Z,52.00
2023-04-27T22:35:24.685Z,52.20
2023-04-27T22:37:55.877Z,52.10
2023-04-27T22:40:24.603Z,52.00
2023-04-27T22:42:53.257Z,52.00
2023-04-27T22:45:22.129Z,52.00
2023-04-27T22:47:49.763Z,52.00
2023-04-27T22:50:17.359Z,52.00
2023-04-27T22:52:44.919Z,52.10
2023-04-27T22:55:13.042Z,52.50
2023-04-27T22:57:41.924Z,52.90
2023-04-27T23:00:11.421Z,52.70
2023-04-27T23:02:42.916Z,52.80
2023-04-27T23:05:11.022Z,52.80
2023-04-27T23:07:41.366Z,53.10
2023-04-27T23:10:10.278Z,52.90
2023-04-27T23:12:38.687Z,52.80
2023-04-27T23:15:06.948Z,53.00
2023-04-27T23:17:34.528Z,52.80
2023-04-27T23:20:11.223Z,52.80
2023-04-27T23:22:46.218Z,53.20
2023-04-27T23:25:13.614Z,52.90
2023-04-27T23:27:41.366Z,52.50
2023-04-27T23:30:09.434Z,52.90
2023-04-27T23:32:37.235Z,53.00
2023-04-27T23:35:05.779Z,53.30
2023-04-27T23:37:33.362Z,53.50
2023-04-27T23:40:01.366Z,53.70
2023-04-27T23:42:28.833Z,53.70
2023-04-27T23:44:56.844Z,53.90
2023-04-27T23:47:24.471Z,53.60
2023-04-27T23:49:51.909Z,53.50
2023-04-27T23:52:19.332Z,53.90
2023-04-27T23:54:46.838Z,54.00
2023-04-27T23:57:16.165Z,54.10
2023-04-27T23:59:43.860Z,54.20
